createdAt,value
2023-05-02T00:03:53.015Z,1.50
2023-05-02T00:08:56.357Z,1.80
2023-05-02T00:13:59.279Z,2.50
2023-05-02T00:19:02.217Z,1.73
2023-05-02T00:24:05.953Z,3.63
2023-05-02T00:29:08.962Z,3.57
2023-05-02T00:34:11.905Z,2.60
2023-05-02T00:39:15.381Z,2.07
2023-05-02T00:44:18.348Z,2.37
2023-05-02T00:49:21.513Z,1.90
2023-05-02T00:54:24.551Z,2.63
2023-05-02T00:59:27.468Z,3.90
2023-05-02T01:04:58.001Z,2.80
2023-05-02T01:10:15.085Z,3.57
2023-05-02T01:15:22.545Z,3.10
2023-05-02T01:20:29.395Z,3.90
2023-05-02T01:25:37.978Z,2.33
2023-05-02T01:30:45.004Z,2.60
2023-05-02T01:35:52.661Z,1.70
2023-05-02T01:40:59.183Z,2.07
2023-05-02T01:46:05.220Z,2.33
2023-05-02T01:51:09.220Z,2.20
2023-05-02T01:56:12.784Z,1.87
2023-05-02T02:01:17.888Z,2.97
2023-05-02T02:06:22.325Z,1.60
2023-05-02T02:11:40.761Z,2.00
2023-05-02T02:16:44.323Z,2.83
2023-05-02T02:21:49.376Z,2.10
2023-05-02T02:26:52.529Z,1.37
2023-05-02T02:31:55.540Z,2.43
2023-05-02T02:37:18.398Z,2.70
2023-05-02T02:42:44.185Z,11.67
2023-05-02T02:48:07.458Z,6.53
2023-05-02T02:53:19.710Z,6.67
2023-05-02T02:58:48.029Z,6.73
2023-05-02T03:03:53.611Z,6.77
2023-05-02T03:08:56.938Z,3.43
2023-05-02T03:13:59.956Z,3.30
2023-05-02T03:19:04.378Z,2.77
2023-05-02T03:24:07.377Z,10.17
2023-05-02T03:29:10.895Z,6.03
2023-05-02T03:34:13.835Z,9.47
2023-05-02T03:39:17.734Z,14.10
2023-05-02T03:44:20.712Z,13.57
2023-05-02T03:49:23.493Z,14.80
2023-05-02T03:54:26.524Z,12.83
2023-05-02T03:59:29.605Z,8.80
2023-05-02T04:04:33.109Z,7.83
2023-05-02T04:09:36.171Z,12.90
2023-05-02T04:14:39.235Z,7.63
2023-05-02T04:19:42.633Z,4.67
2023-05-02T04:24:45.697Z,4.73
2023-05-02T04:29:50.258Z,6.70
2023-05-02T04:34:53.265Z,6.03
2023-05-02T04:39:56.330Z,8.97
2023-05-02T04:45:00.484Z,5.80
2023-05-02T04:50:03.632Z,3.47
2023-05-02T04:55:07.387Z,25.70
2023-05-02T05:00:11.330Z,92.10
2023-05-02T05:05:14.553Z,18.60
2023-05-02T05:10:17.640Z,94.50
2023-05-02T05:15:22.712Z,221.03
2023-05-02T05:20:25.706Z,401.47
2023-05-02T05:25:28.848Z,141.93
2023-05-02T05:30:32.236Z,273.40
2023-05-02T05:35:35.308Z,122.67
2023-05-02T05:40:38.314Z,82.33
2023-05-02T05:45:41.228Z,73.10
2023-05-02T05:50:44.174Z,22.33
2023-05-02T05:55:47.352Z,30.10
2023-05-02T06:00:50.758Z,20.10
2023-05-02T06:05:53.850Z,18.83
2023-05-02T06:10:57.000Z,24.27
2023-05-02T06:16:03.374Z,20.95
2023-05-02T06:21:06.911Z,10.75
2023-05-02T06:26:10.612Z,39.80
2023-05-02T06:31:13.613Z,24.10
2023-05-02T06:36:16.564Z,8.85
2023-05-02T06:41:20.866Z,12.07
2023-05-02T06:46:24.436Z,29.23
2023-05-02T06:51:27.766Z,6.97
2023-05-02T06:56:31.263Z,50.88
2023-05-02T07:01:34.295Z,8.68
2023-05-02T07:06:37.409Z,9.55
2023-05-02T07:11:40.492Z,11.63
2023-05-02T07:16:43.517Z,23.17
2023-05-02T07:21:46.557Z,8.27
2023-05-02T07:26:49.676Z,6.13
2023-05-02T07:31:52.754Z,6.93
2023-05-02T07:36:56.178Z,17.77
2023-05-02T07:41:59.373Z,8.25
2023-05-02T07:47:02.773Z,4.88
2023-05-02T07:52:05.861Z,4.55
2023-05-02T07:57:09.083Z,5.68
2023-05-02T08:02:13.851Z,4.82
2023-05-02T08:07:17.349Z,4.55
2023-05-02T08:12:20.388Z,4.82
2023-05-02T08:17:23.453Z,4.18
2023-05-02T08:22:26.409Z,5.15
2023-05-02T08:27:29.425Z,4.03
2023-05-02T08:32:33.140Z,4.10
2023-05-02T08:37:36.582Z,3.15
2023-05-02T08:42:44.814Z,4.65
2023-05-02T08:47:50.022Z,3.53
2023-05-02T08:52:54.188Z,3.95
2023-05-02T08:57:59.146Z,3.22
2023-05-02T09:03:33.870Z,3.53
2023-05-02T09:08:37.666Z,3.35
2023-05-02T09:13:43.641Z,3.25
2023-05-02T09:18:49.119Z,3.75
2023-05-02T09:23:57.638Z,3.05
2023-05-02T09:29:05.067Z,3.80
2023-05-02T09:34:19.283Z,2.72
2023-05-02T09:39:29.343Z,4.07
2023-05-02T09:44:39.318Z,3.58
2023-05-02T09:54:52.281Z,2.40
2023-05-02T09:59:59.133Z,3.20
2023-05-02T10:05:04.742Z,3.38
2023-05-02T10:10:12.622Z,3.92
2023-05-02T10:15:19.010Z,3.65
2023-05-02T10:20:37.944Z,4.05
2023-05-02T10:25:41.230Z,3.60
2023-05-02T10:30:45.955Z,2.97
2023-05-02T10:35:49.131Z,5.00
2023-05-02T10:41:01.271Z,2.40
2023-05-02T10:46:24.481Z,2.42
2023-05-02T10:51:32.204Z,3.75
2023-05-02T10:56:35.404Z,2.38
2023-05-02T11:01:39.691Z,6.05
2023-05-02T11:07:05.720Z,4.18
2023-05-02T11:12:08.738Z,2.40
2023-05-02T11:17:11.740Z,5.82
2023-05-02T11:22:20.779Z,2.97
2023-05-02T11:27:30.070Z,2.78
2023-05-02T11:32:49.914Z,4.55
2023-05-02T11:37:57.018Z,2.70
2023-05-02T11:43:01.494Z,4.53
2023-05-02T11:48:08.487Z,4.78
2023-05-02T11:53:17.602Z,4.60
2023-05-02T11:58:29.619Z,3.80
2023-05-02T12:03:34.178Z,3.42
2023-05-02T12:08:38.048Z,3.45
2023-05-02T12:13:50.001Z,2.38
2023-05-02T12:18:53.575Z,3.83
2023-05-02T12:23:57.285Z,5.93
2023-05-02T12:29:02.090Z,3.58
2023-05-02T12:34:05.056Z,2.60
2023-05-02T12:39:08.030Z,5.18
2023-05-02T12:44:11.097Z,3.60
2023-05-02T12:49:14.156Z,6.90
2023-05-02T12:54:21.451Z,3.83
2023-05-02T12:59:30.432Z,6.03
2023-05-02T13:04:42.202Z,4.67
2023-05-02T13:09:45.194Z,4.60
2023-05-02T13:14:48.243Z,4.53
2023-05-02T13:20:00.850Z,7.28
2023-05-02T13:25:06.638Z,6.85
2023-05-02T13:30:10.888Z,4.35
2023-05-02T13:35:15.823Z,2.95
2023-05-02T13:40:18.913Z,3.05
2023-05-02T13:45:22.352Z,3.55
2023-05-02T13:50:25.357Z,2.30
2023-05-02T13:55:28.289Z,3.28
2023-05-02T14:00:31.414Z,3.40
2023-05-02T14:05:34.421Z,5.47
2023-05-02T14:10:37.989Z,3.22
2023-05-02T14:15:40.905Z,6.68
2023-05-02T14:20:44.450Z,4.05
2023-05-02T14:25:47.220Z,6.00
2023-05-02T14:30:51.284Z,2.60
2023-05-02T14:35:54.404Z,3.75
2023-05-02T14:40:57.390Z,5.47
2023-05-02T14:46:00.537Z,3.53
2023-05-02T14:51:05.692Z,3.72
2023-05-02T14:56:14.854Z,2.70
2023-05-02T15:01:23.472Z,4.50
2023-05-02T15:06:33.246Z,4.57
2023-05-02T15:11:36.839Z,2.10
2023-05-02T15:16:39.956Z,3.25
2023-05-02T15:21:43.168Z,3.00
2023-05-02T15:26:46.730Z,4.75
2023-05-02T15:31:49.663Z,6.40
2023-05-02T15:36:52.808Z,2.33
2023-05-02T15:41:55.868Z,3.00
2023-05-02T15:47:00.299Z,3.35
2023-05-02T15:52:03.560Z,3.50
2023-05-02T15:57:06.596Z,2.25
2023-05-02T16:02:09.680Z,4.22
2023-05-02T16:07:12.641Z,2.50
2023-05-02T16:12:15.708Z,2.97
2023-05-02T16:17:18.666Z,5.07
2023-05-02T16:22:22.306Z,6.00
2023-05-02T16:27:25.508Z,4.65
2023-05-02T16:32:28.347Z,8.18
2023-05-02T16:37:33.731Z,3.65
2023-05-02T16:42:37.328Z,4.00
2023-05-02T16:47:40.365Z,6.80
2023-05-02T16:52:44.544Z,6.18
2023-05-02T16:57:48.010Z,6.88
2023-05-02T17:02:55.090Z,9.68
2023-05-02T17:07:58.580Z,6.63
2023-05-02T17:13:01.521Z,14.15
2023-05-02T17:18:05.258Z,9.25
2023-05-02T17:23:09.168Z,11.77
2023-05-02T17:28:12.271Z,4.80
2023-05-02T17:33:16.208Z,8.20
2023-05-02T17:38:28.895Z,4.97
2023-05-02T17:43:32.187Z,6.80
2023-05-02T17:48:35.399Z,6.38
2023-05-02T17:53:39.242Z,6.15
2023-05-02T17:58:42.188Z,5.60
2023-05-02T18:03:45.456Z,4.75
2023-05-02T18:08:48.683Z,7.28
2023-05-02T18:13:52.058Z,3.97
2023-05-02T18:18:55.329Z,7.70
2023-05-02T18:23:58.184Z,7.63
2023-05-02T18:29:01.167Z,7.95
2023-05-02T18:34:04.752Z,6.35
2023-05-02T18:39:10.453Z,10.20
2023-05-02T18:44:13.462Z,5.70
2023-05-02T18:49:17.736Z,3.70
2023-05-02T18:54:22.888Z,4.97
2023-05-02T18:59:26.716Z,6.57
2023-05-02T19:04:33.088Z,6.10
2023-05-02T19:09:37.272Z,7.25
2023-05-02T19:14:40.523Z,11.43
2023-05-02T19:19:46.704Z,7.93
2023-05-02T19:24:51.005Z,7.63
2023-05-02T19:29:54.730Z,7.90
2023-05-02T19:34:58.063Z,8.38
2023-05-02T19:40:01.169Z,7.40
2023-05-02T19:45:04.744Z,5.10
2023-05-02T19:50:09.451Z,5.05
2023-05-02T19:55:12.618Z,6.90
2023-05-02T20:00:16.284Z,7.97
2023-05-02T20:05:19.712Z,10.30
2023-05-02T20:10:22.877Z,6.25
2023-05-02T20:15:26.003Z,6.60
2023-05-02T20:20:30.230Z,5.72
2023-05-02T20:25:33.324Z,5.50
2023-05-02T20:30:36.348Z,4.80
2023-05-02T20:35:39.329Z,5.97
2023-05-02T20:40:42.835Z,3.88
2023-05-02T20:45:47.123Z,3.88
2023-05-02T20:50:54.670Z,3.22
2023-05-02T20:55:57.805Z,3.97
2023-05-02T21:01:01.420Z,4.93
2023-05-02T21:06:04.536Z,3.95
2023-05-02T21:11:16.862Z,4.60
2023-05-02T21:16:22.113Z,5.17
2023-05-02T21:21:25.307Z,5.50
2023-05-02T21:26:28.368Z,6.50
2023-05-02T21:31:33.215Z,4.90
2023-05-02T21:36:36.399Z,4.83
2023-05-02T21:41:39.478Z,5.33
2023-05-02T21:46:42.712Z,4.30
2023-05-02T21:51:45.851Z,5.13
2023-05-02T21:56:48.871Z,4.07
2023-05-02T22:01:52.316Z,3.83
2023-05-02T22:06:55.855Z,5.57
2023-05-02T22:11:58.980Z,4.33
2023-05-02T22:17:04.625Z,5.13
2023-05-02T22:22:08.134Z,4.80
2023-05-02T22:27:11.256Z,6.30
2023-05-02T22:32:14.296Z,4.33
2023-05-02T22:37:17.195Z,6.73
2023-05-02T22:42:20.899Z,6.47
2023-05-02T22:47:24.099Z,7.57
2023-05-02T22:52:27.495Z,5.87
2023-05-02T22:57:31.393Z,4.95
2023-05-02T23:02:35.821Z,4.50
2023-05-02T23:07:39.574Z,4.43
2023-05-02T23:12:42.640Z,5.40
2023-05-02T23:17:45.687Z,5.20
2023-05-02T23:22:48.769Z,5.70
2023-05-02T23:27:51.990Z,6.03
2023-05-02T23:32:55.551Z,5.50
2023-05-02T23:38:07.089Z,6.60
2023-05-02T23:43:10.994Z,5.47
2023-05-02T23:48:13.986Z,5.37
2023-05-02T23:53:17.063Z,6.57
2023-05-02T23:58:20.140Z,6.13
